sensor_id;sensor_type;location;lat;lon;timestamp;P1;durP1;ratioP1;P2;durP2;ratioP2
18013;SDS011;9132;47.946;10.394;2023-04-16T00:01:15;6.70;;;5.37;;
18013;SDS011;9132;47.946;10.394;2023-04-16T00:03:41;5.57;;;5.07;;
18013;SDS011;9132;47.946;10.394;2023-04-16T00:06:09;6.10;;;5.33;;
18013;SDS011;9132;47.946;10.394;2023-04-16T00:08:35;5.73;;;5.17;;
18013;SDS011;9132;47.946;10.394;2023-04-16T00:11:01;5.97;;;5.37;;
18013;SDS011;9132;47.946;10.394;2023-04-16T00:13:28;6.20;;;5.60;;
18013;SDS011;9132;47.946;10.394;2023-04-16T00:15:55;6.63;;;5.23;;
18013;SDS011;9132;47.946;10.394;2023-04-16T00:18:23;5.43;;;4.60;;
18013;SDS011;9132;47.946;10.394;2023-04-16T00:20:50;5.60;;;4.97;;
18013;SDS011;9132;47.946;10.394;2023-04-16T00:23:17;8.57;;;5.50;;
18013;SDS011;9132;47.946;10.394;2023-04-16T00:25:43;5.93;;;5.33;;
18013;SDS011;9132;47.946;10.394;2023-04-16T00:28:10;6.07;;;5.40;;
18013;SDS011;9132;47.946;10.394;2023-04-16T00:30:36;5.80;;;5.07;;
18013;SDS011;9132;47.946;10.394;2023-04-16T00:33:04;5.40;;;4.77;;
18013;SDS011;9132;47.946;10.394;2023-04-16T00:35:30;4.83;;;4.33;;
18013;SDS011;9132;47.946;10.394;2023-04-16T00:37:57;5.10;;;4.33;;
18013;SDS011;9132;47.946;10.394;2023-04-16T00:40:25;5.00;;;4.40;;
18013;SDS011;9132;47.946;10.394;2023-04-16T00:42:52;5.50;;;4.90;;
18013;SDS011;9132;47.946;10.394;2023-04-16T00:45:18;4.40;;;4.00;;
18013;SDS011;9132;47.946;10.394;2023-04-16T00:47:44;4.63;;;4.23;;
18013;SDS011;9132;47.946;10.394;2023-04-16T00:50:12;4.50;;;4.10;;
18013;SDS011;9132;47.946;10.394;2023-04-16T00:52:39;4.90;;;4.40;;
18013;SDS011;9132;47.946;10.394;2023-04-16T00:55:05;4.50;;;4.10;;
18013;SDS011;9132;47.946;10.394;2023-04-16T00:57:32;4.77;;;3.80;;
18013;SDS011;9132;47.946;10.394;2023-04-16T00:59:58;4.13;;;3.73;;
18013;SDS011;9132;47.946;10.394;2023-04-16T01:02:25;3.90;;;3.40;;
18013;SDS011;9132;47.946;10.394;2023-04-16T01:04:51;4.40;;;4.00;;
18013;SDS011;9132;47.946;10.394;2023-04-16T01:07:19;3.83;;;3.43;;
18013;SDS011;9132;47.946;10.394;2023-04-16T01:09:45;4.63;;;3.87;;
18013;SDS011;9132;47.946;10.394;2023-04-16T01:12:12;4.10;;;3.70;;
18013;SDS011;9132;47.946;10.394;2023-04-16T01:14:38;4.80;;;4.00;;
18013;SDS011;9132;47.946;10.394;2023-04-16T01:17:04;4.00;;;3.60;;
18013;SDS011;9132;47.946;10.394;2023-04-16T01:19:31;4.73;;;3.80;;
18013;SDS011;9132;47.946;10.394;2023-04-16T01:22:01;3.60;;;3.30;;
18013;SDS011;9132;47.946;10.394;2023-04-16T01:24:27;4.97;;;3.87;;
18013;SDS011;9132;47.946;10.394;2023-04-16T01:26:54;4.37;;;3.97;;
18013;SDS011;9132;47.946;10.394;2023-04-16T01:29:20;3.80;;;3.40;;
18013;SDS011;9132;47.946;10.394;2023-04-16T01:31:46;5.27;;;4.20;;
18013;SDS011;9132;47.946;10.394;2023-04-16T01:34:13;4.30;;;3.90;;
18013;SDS011;9132;47.946;10.394;2023-04-16T01:36:39;4.10;;;3.70;;
18013;SDS011;9132;47.946;10.394;2023-04-16T01:39:07;4.33;;;3.93;;
18013;SDS011;9132;47.946;10.394;2023-04-16T01:41:35;4.10;;;3.73;;
18013;SDS011;9132;47.946;10.394;2023-04-16T01:44:02;3.77;;;3.43;;
18013;SDS011;9132;47.946;10.394;2023-04-16T01:46:29;4.27;;;3.87;;
18013;SDS011;9132;47.946;10.394;2023-04-16T01:48:55;4.60;;;3.77;;
18013;SDS011;9132;47.946;10.394;2023-04-16T01:51:22;5.00;;;3.70;;
18013;SDS011;9132;47.946;10.394;2023-04-16T01:53:48;4.27;;;3.87;;
18013;SDS011;9132;47.946;10.394;2023-04-16T01:56:16;4.60;;;4.20;;
18013;SDS011;9132;47.946;10.394;2023-04-16T01:58:42;4.50;;;3.77;;
18013;SDS011;9132;47.946;10.394;2023-04-16T02:01:10;3.87;;;3.47;;
18013;SDS011;9132;47.946;10.394;2023-04-16T02:03:36;3.73;;;3.43;;
18013;SDS011;9132;47.946;10.394;2023-04-16T02:06:02;4.60;;;4.20;;
18013;SDS011;9132;47.946;10.394;2023-04-16T02:08:29;4.43;;;4.03;;
18013;SDS011;9132;47.946;10.394;2023-04-16T02:10:55;5.00;;;4.50;;
18013;SDS011;9132;47.946;10.394;2023-04-16T02:13:23;5.20;;;4.70;;
18013;SDS011;9132;47.946;10.394;2023-04-16T02:15:50;5.27;;;4.63;;
18013;SDS011;9132;47.946;10.394;2023-04-16T02:18:17;5.27;;;4.77;;
18013;SDS011;9132;47.946;10.394;2023-04-16T02:20:44;5.43;;;4.70;;
18013;SDS011;9132;47.946;10.394;2023-04-16T02:23:10;4.53;;;4.13;;
18013;SDS011;9132;47.946;10.394;2023-04-16T02:25:39;4.17;;;3.77;;
18013;SDS011;9132;47.946;10.394;2023-04-16T02:28:06;3.57;;;3.27;;
18013;SDS011;9132;47.946;10.394;2023-04-16T02:30:33;3.30;;;3.00;;
18013;SDS011;9132;47.946;10.394;2023-04-16T02:33:00;3.50;;;3.20;;
18013;SDS011;9132;47.946;10.394;2023-04-16T02:35:27;3.43;;;3.13;;
18013;SDS011;9132;47.946;10.394;2023-04-16T02:37:53;3.23;;;2.93;;
18013;SDS011;9132;47.946;10.394;2023-04-16T02:40:20;2.77;;;2.57;;
18013;SDS011;9132;47.946;10.394;2023-04-16T02:42:46;3.00;;;2.80;;
18013;SDS011;9132;47.946;10.394;2023-04-16T02:45:13;2.60;;;2.40;;
18013;SDS011;9132;47.946;10.394;2023-04-16T02:47:41;3.10;;;2.80;;
18013;SDS011;9132;47.946;10.394;2023-04-16T02:50:07;2.67;;;2.47;;
18013;SDS011;9132;47.946;10.394;2023-04-16T02:52:33;4.13;;;2.60;;
18013;SDS011;9132;47.946;10.394;2023-04-16T02:55:00;2.33;;;2.13;;
18013;SDS011;9132;47.946;10.394;2023-04-16T02:57:26;2.40;;;2.20;;
18013;SDS011;9132;47.946;10.394;2023-04-16T02:59:53;2.60;;;2.40;;
18013;SDS011;9132;47.946;10.394;2023-04-16T03:02:19;2.30;;;2.10;;
18013;SDS011;9132;47.946;10.394;2023-04-16T03:04:47;1.77;;;1.67;;
18013;SDS011;9132;47.946;10.394;2023-04-16T03:07:13;1.90;;;1.80;;
18013;SDS011;9132;47.946;10.394;2023-04-16T03:09:40;1.80;;;1.70;;
18013;SDS011;9132;47.946;10.394;2023-04-16T03:12:06;1.80;;;1.70;;
18013;SDS011;9132;47.946;10.394;2023-04-16T03:14:32;1.70;;;1.60;;
18013;SDS011;9132;47.946;10.394;2023-04-16T03:16:58;1.30;;;1.20;;
18013;SDS011;9132;47.946;10.394;2023-04-16T03:19:25;1.60;;;1.50;;
18013;SDS011;9132;47.946;10.394;2023-04-16T03:21:52;1.57;;;1.47;;
18013;SDS011;9132;47.946;10.394;2023-04-16T03:24:19;1.50;;;1.40;;
18013;SDS011;9132;47.946;10.394;2023-04-16T03:26:45;1.70;;;1.60;;
18013;SDS011;9132;47.946;10.394;2023-04-16T03:29:11;1.63;;;1.53;;
18013;SDS011;9132;47.946;10.394;2023-04-16T03:31:38;1.87;;;1.77;;
18013;SDS011;9132;47.946;10.394;2023-04-16T03:34:05;2.70;;;1.73;;
18013;SDS011;9132;47.946;10.394;2023-04-16T03:36:31;2.20;;;1.63;;
18013;SDS011;9132;47.946;10.394;2023-04-16T03:38:59;1.40;;;1.17;;
18013;SDS011;9132;47.946;10.394;2023-04-16T03:41:25;1.30;;;1.20;;
18013;SDS011;9132;47.946;10.394;2023-04-16T03:43:51;1.20;;;1.10;;
18013;SDS011;9132;47.946;10.394;2023-04-16T03:46:18;1.53;;;1.33;;
18013;SDS011;9132;47.946;10.394;2023-04-16T03:48:44;1.27;;;1.17;;
18013;SDS011;9132;47.946;10.394;2023-04-16T03:51:10;1.40;;;1.30;;
18013;SDS011;9132;47.946;10.394;2023-04-16T03:53:37;1.60;;;1.50;;
18013;SDS011;9132;47.946;10.394;2023-04-16T03:56:04;1.70;;;1.60;;
18013;SDS011;9132;47.946;10.394;2023-04-16T03:58:31;1.30;;;1.20;;
18013;SDS011;9132;47.946;10.394;2023-04-16T04:00:57;1.30;;;1.20;;
18013;SDS011;9132;47.946;10.394;2023-04-16T04:03:23;1.43;;;1.10;;
18013;SDS011;9132;47.946;10.394;2023-04-16T04:05:50;1.37;;;1.27;;
18013;SDS011;9132;47.946;10.394;2023-04-16T04:08:17;1.60;;;1.17;;
18013;SDS011;9132;47.946;10.394;2023-04-16T04:10:43;1.20;;;1.10;;
18013;SDS011;9132;47.946;10.394;2023-04-16T04:13:11;1.20;;;1.10;;
18013;SDS011;9132;47.946;10.394;2023-04-16T04:15:37;0.97;;;0.97;;
18013;SDS011;9132;47.946;10.394;2023-04-16T04:18:03;0.73;;;0.73;;
18013;SDS011;9132;47.946;10.394;2023-04-16T04:20:30;0.80;;;0.80;;
18013;SDS011;9132;47.946;10.394;2023-04-16T04:22:56;1.70;;;0.80;;
18013;SDS011;9132;47.946;10.394;2023-04-16T04:25:22;1.07;;;0.90;;
18013;SDS011;9132;47.946;10.394;2023-04-16T04:27:49;0.90;;;0.90;;
18013;SDS011;9132;47.946;10.394;2023-04-16T04:30:16;0.80;;;0.80;;
18013;SDS011;9132;47.946;10.394;2023-04-16T04:32:43;0.80;;;0.80;;
18013;SDS011;9132;47.946;10.394;2023-04-16T04:35:09;0.80;;;0.80;;
18013;SDS011;9132;47.946;10.394;2023-04-16T04:37:35;0.70;;;0.70;;
18013;SDS011;9132;47.946;10.394;2023-04-16T04:40:02;0.80;;;0.80;;
18013;SDS011;9132;47.946;10.394;2023-04-16T04:42:28;0.80;;;0.80;;
18013;SDS011;9132;47.946;10.394;2023-04-16T04:44:54;0.70;;;0.70;;
18013;SDS011;9132;47.946;10.394;2023-04-16T04:47:22;0.70;;;0.70;;
18013;SDS011;9132;47.946;10.394;2023-04-16T04:49:48;1.30;;;1.20;;
18013;SDS011;9132;47.946;10.394;2023-04-16T04:52:15;0.90;;;0.90;;
18013;SDS011;9132;47.946;10.394;2023-04-16T04:54:41;0.80;;;0.80;;
18013;SDS011;9132;47.946;10.394;2023-04-16T04:57:07;0.53;;;0.50;;
18013;SDS011;9132;47.946;10.394;2023-04-16T04:59:33;0.77;;;0.77;;
18013;SDS011;9132;47.946;10.394;2023-04-16T05:02:00;0.50;;;0.50;;
18013;SDS011;9132;47.946;10.394;2023-04-16T05:04:28;0.60;;;0.60;;
18013;SDS011;9132;47.946;10.394;2023-04-16T05:06:55;0.40;;;0.40;;
18013;SDS011;9132;47.946;10.394;2023-04-16T05:09:21;0.60;;;0.60;;
18013;SDS011;9132;47.946;10.394;2023-04-16T05:11:47;0.50;;;0.50;;
18013;SDS011;9132;47.946;10.394;2023-04-16T05:14:14;0.30;;;0.30;;
18013;SDS011;9132;47.946;10.394;2023-04-16T05:16:40;0.40;;;0.40;;
18013;SDS011;9132;47.946;10.394;2023-04-16T05:19:06;0.30;;;0.30;;
18013;SDS011;9132;47.946;10.394;2023-04-16T05:21:34;0.47;;;0.40;;
18013;SDS011;9132;47.946;10.394;2023-04-16T05:24:00;0.37;;;0.37;;
18013;SDS011;9132;47.946;10.394;2023-04-16T05:26:26;0.43;;;0.40;;
18013;SDS011;9132;47.946;10.394;2023-04-16T05:28:53;0.37;;;0.30;;
18013;SDS011;9132;47.946;10.394;2023-04-16T05:31:19;0.30;;;0.30;;
18013;SDS011;9132;47.946;10.394;2023-04-16T05:33:45;0.30;;;0.30;;
18013;SDS011;9132;47.946;10.394;2023-04-16T05:36:12;0.20;;;0.20;;
18013;SDS011;9132;47.946;10.394;2023-04-16T05:38:39;0.50;;;0.40;;
18013;SDS011;9132;47.946;10.394;2023-04-16T05:41:05;0.40;;;0.40;;
18013;SDS011;9132;47.946;10.394;2023-04-16T05:43:32;0.40;;;0.40;;
18013;SDS011;9132;47.946;10.394;2023-04-16T05:45:58;0.40;;;0.30;;
18013;SDS011;9132;47.946;10.394;2023-04-16T05:48:24;0.40;;;0.40;;
18013;SDS011;9132;47.946;10.394;2023-04-16T05:50:51;0.30;;;0.30;;
18013;SDS011;9132;47.946;10.394;2023-04-16T05:53:17;0.40;;;0.40;;
18013;SDS011;9132;47.946;10.394;2023-04-16T05:55:45;0.50;;;0.50;;
18013;SDS011;9132;47.946;10.394;2023-04-16T05:58:11;0.40;;;0.40;;
18013;SDS011;9132;47.946;10.394;2023-04-16T06:00:38;0.30;;;0.30;;
18013;SDS011;9132;47.946;10.394;2023-04-16T06:03:04;0.40;;;0.40;;
18013;SDS011;9132;47.946;10.394;2023-04-16T06:05:30;0.33;;;0.33;;
18013;SDS011;9132;47.946;10.394;2023-04-16T06:07:57;0.50;;;0.40;;
18013;SDS011;9132;47.946;10.394;2023-04-16T06:10:23;0.50;;;0.50;;
18013;SDS011;9132;47.946;10.394;2023-04-16T06:12:51;0.40;;;0.40;;
18013;SDS011;9132;47.946;10.394;2023-04-16T06:15:17;0.53;;;0.50;;
18013;SDS011;9132;47.946;10.394;2023-04-16T06:17:43;0.40;;;0.40;;
18013;SDS011;9132;47.946;10.394;2023-04-16T06:20:10;0.40;;;0.40;;
18013;SDS011;9132;47.946;10.394;2023-04-16T06:22:37;0.47;;;0.47;;
18013;SDS011;9132;47.946;10.394;2023-04-16T06:25:03;0.50;;;0.43;;
18013;SDS011;9132;47.946;10.394;2023-04-16T06:27:30;0.57;;;0.40;;
18013;SDS011;9132;47.946;10.394;2023-04-16T06:29:57;0.43;;;0.43;;
18013;SDS011;9132;47.946;10.394;2023-04-16T06:32:24;0.40;;;0.40;;
18013;SDS011;9132;47.946;10.394;2023-04-16T06:34:50;0.87;;;0.40;;
18013;SDS011;9132;47.946;10.394;2023-04-16T06:37:16;0.80;;;0.50;;
18013;SDS011;9132;47.946;10.394;2023-04-16T06:39:43;0.57;;;0.57;;
18013;SDS011;9132;47.946;10.394;2023-04-16T06:42:09;0.50;;;0.50;;
18013;SDS011;9132;47.946;10.394;2023-04-16T06:44:35;0.33;;;0.33;;
18013;SDS011;9132;47.946;10.394;2023-04-16T06:47:03;0.40;;;0.40;;
18013;SDS011;9132;47.946;10.394;2023-04-16T06:49:29;0.53;;;0.53;;
18013;SDS011;9132;47.946;10.394;2023-04-16T06:51:56;0.50;;;0.50;;
18013;SDS011;9132;47.946;10.394;2023-04-16T06:54:22;0.43;;;0.43;;
18013;SDS011;9132;47.946;10.394;2023-04-16T06:56:48;0.40;;;0.40;;
18013;SDS011;9132;47.946;10.394;2023-04-16T06:59:15;0.70;;;0.70;;
18013;SDS011;9132;47.946;10.394;2023-04-16T07:01:41;0.50;;;0.50;;
18013;SDS011;9132;47.946;10.394;2023-04-16T07:04:09;5.77;;;2.23;;
18013;SDS011;9132;47.946;10.394;2023-04-16T07:06:35;1.83;;;1.47;;
18013;SDS011;9132;47.946;10.394;2023-04-16T07:09:01;7.30;;;5.77;;
18013;SDS011;9132;47.946;10.394;2023-04-16T07:11:28;4.30;;;3.67;;
18013;SDS011;9132;47.946;10.394;2023-04-16T07:13:55;2.30;;;2.10;;
18013;SDS011;9132;47.946;10.394;2023-04-16T07:16:21;0.90;;;0.90;;
18013;SDS011;9132;47.946;10.394;2023-04-16T07:18:48;1.00;;;1.00;;
18013;SDS011;9132;47.946;10.394;2023-04-16T07:21:15;0.73;;;0.60;;
18013;SDS011;9132;47.946;10.394;2023-04-16T07:23:42;0.53;;;0.53;;
18013;SDS011;9132;47.946;10.394;2023-04-16T07:26:08;1.00;;;1.00;;
18013;SDS011;9132;47.946;10.394;2023-04-16T07:28:35;0.90;;;0.90;;
18013;SDS011;9132;47.946;10.394;2023-04-16T07:31:01;1.00;;;1.00;;
18013;SDS011;9132;47.946;10.394;2023-04-16T07:33:28;0.67;;;0.67;;
18013;SDS011;9132;47.946;10.394;2023-04-16T07:35:54;0.90;;;0.90;;
18013;SDS011;9132;47.946;10.394;2023-04-16T07:38:22;2.30;;;2.00;;
18013;SDS011;9132;47.946;10.394;2023-04-16T07:40:48;1.00;;;0.90;;
18013;SDS011;9132;47.946;10.394;2023-04-16T07:43:15;0.70;;;0.70;;
18013;SDS011;9132;47.946;10.394;2023-04-16T07:45:41;0.60;;;0.50;;
18013;SDS011;9132;47.946;10.394;2023-04-16T07:48:08;0.80;;;0.80;;
18013;SDS011;9132;47.946;10.394;2023-04-16T07:50:34;1.33;;;1.10;;
18013;SDS011;9132;47.946;10.394;2023-04-16T07:53:01;1.30;;;1.20;;
18013;SDS011;9132;47.946;10.394;2023-04-16T07:55:29;0.60;;;0.60;;
18013;SDS011;9132;47.946;10.394;2023-04-16T07:57:55;1.50;;;1.40;;
18013;SDS011;9132;47.946;10.394;2023-04-16T08:00:21;0.70;;;0.70;;
18013;SDS011;9132;47.946;10.394;2023-04-16T08:02:47;0.60;;;0.60;;
18013;SDS011;9132;47.946;10.394;2023-04-16T08:05:14;0.80;;;0.70;;
18013;SDS011;9132;47.946;10.394;2023-04-16T08:07:40;0.80;;;0.80;;
18013;SDS011;9132;47.946;10.394;2023-04-16T08:10:07;1.27;;;0.90;;
18013;SDS011;9132;47.946;10.394;2023-04-16T08:12:35;0.60;;;0.60;;
18013;SDS011;9132;47.946;10.394;2023-04-16T08:15:01;0.63;;;0.63;;
18013;SDS011;9132;47.946;10.394;2023-04-16T08:17:27;1.00;;;0.70;;
18013;SDS011;9132;47.946;10.394;2023-04-16T08:19:54;0.70;;;0.70;;
18013;SDS011;9132;47.946;10.394;2023-04-16T08:22:20;0.50;;;0.50;;
18013;SDS011;9132;47.946;10.394;2023-04-16T08:24:47;0.47;;;0.47;;
18013;SDS011;9132;47.946;10.394;2023-04-16T08:27:13;0.50;;;0.50;;
18013;SDS011;9132;47.946;10.394;2023-04-16T08:29:41;0.40;;;0.40;;
18013;SDS011;9132;47.946;10.394;2023-04-16T08:32:07;0.53;;;0.53;;
18013;SDS011;9132;47.946;10.394;2023-04-16T08:34:34;0.70;;;0.70;;
18013;SDS011;9132;47.946;10.394;2023-04-16T08:37:01;0.60;;;0.60;;
18013;SDS011;9132;47.946;10.394;2023-04-16T08:39:27;0.40;;;0.40;;
18013;SDS011;9132;47.946;10.394;2023-04-16T08:41:53;0.60;;;0.50;;
18013;SDS011;9132;47.946;10.394;2023-04-16T08:44:20;0.50;;;0.50;;
18013;SDS011;9132;47.946;10.394;2023-04-16T08:46:49;0.77;;;0.50;;
18013;SDS011;9132;47.946;10.394;2023-04-16T08:49:18;0.40;;;0.40;;
18013;SDS011;9132;47.946;10.394;2023-04-16T08:51:48;0.30;;;0.30;;
18013;SDS011;9132;47.946;10.394;2023-04-16T08:54:17;0.27;;;0.27;;
18013;SDS011;9132;47.946;10.394;2023-04-16T08:56:46;0.30;;;0.30;;
18013;SDS011;9132;47.946;10.394;2023-04-16T08:59:12;0.63;;;0.63;;
18013;SDS011;9132;47.946;10.394;2023-04-16T09:01:39;0.53;;;0.53;;
18013;SDS011;9132;47.946;10.394;2023-04-16T09:04:07;0.40;;;0.40;;
18013;SDS011;9132;47.946;10.394;2023-04-16T09:06:34;0.40;;;0.40;;
18013;SDS011;9132;47.946;10.394;2023-04-16T09:09:01;0.40;;;0.40;;
18013;SDS011;9132;47.946;10.394;2023-04-16T09:11:29;2.23;;;1.77;;
18013;SDS011;9132;47.946;10.394;2023-04-16T09:13:56;0.63;;;0.50;;
18013;SDS011;9132;47.946;10.394;2023-04-16T09:16:22;1.13;;;1.07;;
18013;SDS011;9132;47.946;10.394;2023-04-16T09:18:50;1.10;;;1.00;;
18013;SDS011;9132;47.946;10.394;2023-04-16T09:21:18;1.10;;;1.10;;
18013;SDS011;9132;47.946;10.394;2023-04-16T09:23:44;2.07;;;1.50;;
18013;SDS011;9132;47.946;10.394;2023-04-16T09:26:12;1.07;;;1.00;;
18013;SDS011;9132;47.946;10.394;2023-04-16T09:28:38;1.00;;;1.00;;
18013;SDS011;9132;47.946;10.394;2023-04-16T09:31:09;1.13;;;1.13;;
18013;SDS011;9132;47.946;10.394;2023-04-16T09:33:35;0.50;;;0.50;;
18013;SDS011;9132;47.946;10.394;2023-04-16T09:36:01;0.73;;;0.60;;
18013;SDS011;9132;47.946;10.394;2023-04-16T09:38:42;0.70;;;0.70;;
18013;SDS011;9132;47.946;10.394;2023-04-16T09:41:10;0.60;;;0.50;;
18013;SDS011;9132;47.946;10.394;2023-04-16T09:43:37;0.60;;;0.60;;
18013;SDS011;9132;47.946;10.394;2023-04-16T09:46:04;0.90;;;0.60;;
18013;SDS011;9132;47.946;10.394;2023-04-16T09:48:30;0.50;;;0.50;;
18013;SDS011;9132;47.946;10.394;2023-04-16T09:50:57;0.63;;;0.50;;
18013;SDS011;9132;47.946;10.394;2023-04-16T09:53:23;0.50;;;0.50;;
18013;SDS011;9132;47.946;10.394;2023-04-16T09:55:52;0.40;;;0.40;;
18013;SDS011;9132;47.946;10.394;2023-04-16T09:58:18;0.70;;;0.40;;
18013;SDS011;9132;47.946;10.394;2023-04-16T10:00:45;0.50;;;0.50;;
18013;SDS011;9132;47.946;10.394;2023-04-16T10:03:11;0.67;;;0.67;;
18013;SDS011;9132;47.946;10.394;2023-04-16T10:05:37;0.50;;;0.50;;
18013;SDS011;9132;47.946;10.394;2023-04-16T10:08:09;0.90;;;0.70;;
18013;SDS011;9132;47.946;10.394;2023-04-16T10:10:36;0.77;;;0.50;;
18013;SDS011;9132;47.946;10.394;2023-04-16T10:13:03;0.70;;;0.60;;
18013;SDS011;9132;47.946;10.394;2023-04-16T10:15:30;0.60;;;0.60;;
18013;SDS011;9132;47.946;10.394;2023-04-16T10:17:56;0.50;;;0.50;;
18013;SDS011;9132;47.946;10.394;2023-04-16T10:20:24;0.70;;;0.70;;
18013;SDS011;9132;47.946;10.394;2023-04-16T10:22:51;0.50;;;0.50;;
18013;SDS011;9132;47.946;10.394;2023-04-16T10:25:19;0.50;;;0.50;;
18013;SDS011;9132;47.946;10.394;2023-04-16T10:27:45;0.70;;;0.70;;
18013;SDS011;9132;47.946;10.394;2023-04-16T10:30:14;0.70;;;0.70;;
18013;SDS011;9132;47.946;10.394;2023-04-16T10:32:40;0.90;;;0.87;;
18013;SDS011;9132;47.946;10.394;2023-04-16T10:35:07;1.80;;;1.70;;
18013;SDS011;9132;47.946;10.394;2023-04-16T10:37:35;3.40;;;2.70;;
18013;SDS011;9132;47.946;10.394;2023-04-16T10:40:04;3.40;;;3.10;;
18013;SDS011;9132;47.946;10.394;2023-04-16T10:42:52;0.80;;;0.80;;
18013;SDS011;9132;47.946;10.394;2023-04-16T10:45:19;1.03;;;1.03;;
18013;SDS011;9132;47.946;10.394;2023-04-16T10:47:51;1.00;;;0.90;;
18013;SDS011;9132;47.946;10.394;2023-04-16T10:50:20;1.10;;;1.00;;
18013;SDS011;9132;47.946;10.394;2023-04-16T10:52:46;2.40;;;2.20;;
18013;SDS011;9132;47.946;10.394;2023-04-16T10:55:14;2.10;;;1.70;;
18013;SDS011;9132;47.946;10.394;2023-04-16T10:57:41;1.20;;;0.80;;
18013;SDS011;9132;47.946;10.394;2023-04-16T11:00:20;0.73;;;0.57;;
18013;SDS011;9132;47.946;10.394;2023-04-16T11:02:48;1.30;;;1.20;;
18013;SDS011;9132;47.946;10.394;2023-04-16T11:05:20;1.13;;;0.93;;
18013;SDS011;9132;47.946;10.394;2023-04-16T11:07:46;2.80;;;2.47;;
18013;SDS011;9132;47.946;10.394;2023-04-16T11:10:13;2.50;;;2.30;;
18013;SDS011;9132;47.946;10.394;2023-04-16T11:12:40;1.47;;;1.37;;
18013;SDS011;9132;47.946;10.394;2023-04-16T11:15:07;1.00;;;0.90;;
18013;SDS011;9132;47.946;10.394;2023-04-16T11:17:37;3.03;;;2.07;;
18013;SDS011;9132;47.946;10.394;2023-04-16T11:20:04;0.80;;;0.80;;
18013;SDS011;9132;47.946;10.394;2023-04-16T11:22:30;6.50;;;5.90;;
18013;SDS011;9132;47.946;10.394;2023-04-16T11:24:59;13.37;;;12.37;;
18013;SDS011;9132;47.946;10.394;2023-04-16T11:27:26;6.47;;;5.93;;
18013;SDS011;9132;47.946;10.394;2023-04-16T11:29:58;3.67;;;2.70;;
18013;SDS011;9132;47.946;10.394;2023-04-16T11:32:25;1.00;;;0.90;;
18013;SDS011;9132;47.946;10.394;2023-04-16T11:34:53;3.17;;;2.43;;
18013;SDS011;9132;47.946;10.394;2023-04-16T11:37:20;2.17;;;1.60;;
18013;SDS011;9132;47.946;10.394;2023-04-16T11:39:50;0.60;;;0.60;;
18013;SDS011;9132;47.946;10.394;2023-04-16T11:42:20;2.33;;;1.30;;
18013;SDS011;9132;47.946;10.394;2023-04-16T11:44:50;1.20;;;1.07;;
18013;SDS011;9132;47.946;10.394;2023-04-16T11:47:16;0.80;;;0.80;;
18013;SDS011;9132;47.946;10.394;2023-04-16T11:49:43;4.80;;;2.70;;
18013;SDS011;9132;47.946;10.394;2023-04-16T11:52:10;0.57;;;0.50;;
18013;SDS011;9132;47.946;10.394;2023-04-16T11:54:37;1.67;;;1.37;;
18013;SDS011;9132;47.946;10.394;2023-04-16T11:57:03;1.30;;;1.07;;
18013;SDS011;9132;47.946;10.394;2023-04-16T11:59:30;2.27;;;1.97;;
18013;SDS011;9132;47.946;10.394;2023-04-16T12:01:57;1.23;;;1.13;;
18013;SDS011;9132;47.946;10.394;2023-04-16T12:04:25;4.47;;;2.50;;
18013;SDS011;9132;47.946;10.394;2023-04-16T12:07:05;1.60;;;1.40;;
18013;SDS011;9132;47.946;10.394;2023-04-16T12:09:33;0.87;;;0.83;;
18013;SDS011;9132;47.946;10.394;2023-04-16T12:12:00;1.43;;;1.20;;
18013;SDS011;9132;47.946;10.394;2023-04-16T12:14:27;0.70;;;0.70;;
18013;SDS011;9132;47.946;10.394;2023-04-16T12:16:53;2.73;;;1.50;;
18013;SDS011;9132;47.946;10.394;2023-04-16T12:19:20;3.27;;;2.00;;
18013;SDS011;9132;47.946;10.394;2023-04-16T12:21:47;1.83;;;1.63;;
18013;SDS011;9132;47.946;10.394;2023-04-16T12:24:14;2.63;;;1.93;;
18013;SDS011;9132;47.946;10.394;2023-04-16T12:26:42;1.20;;;1.10;;
18013;SDS011;9132;47.946;10.394;2023-04-16T12:29:19;3.37;;;3.07;;
18013;SDS011;9132;47.946;10.394;2023-04-16T12:31:52;5.10;;;4.70;;
18013;SDS011;9132;47.946;10.394;2023-04-16T12:34:19;1.90;;;1.67;;
18013;SDS011;9132;47.946;10.394;2023-04-16T12:36:46;2.57;;;2.37;;
18013;SDS011;9132;47.946;10.394;2023-04-16T12:39:13;1.50;;;1.40;;
18013;SDS011;9132;47.946;10.394;2023-04-16T12:41:39;1.30;;;1.20;;
18013;SDS011;9132;47.946;10.394;2023-04-16T12:44:08;1.10;;;1.00;;
18013;SDS011;9132;47.946;10.394;2023-04-16T12:46:35;0.87;;;0.87;;
18013;SDS011;9132;47.946;10.394;2023-04-16T12:49:02;0.93;;;0.53;;
18013;SDS011;9132;47.946;10.394;2023-04-16T12:51:28;1.00;;;0.90;;
18013;SDS011;9132;47.946;10.394;2023-04-16T12:53:54;1.50;;;1.40;;
18013;SDS011;9132;47.946;10.394;2023-04-16T12:56:21;1.67;;;1.50;;
18013;SDS011;9132;47.946;10.394;2023-04-16T12:58:47;1.60;;;1.50;;
18013;SDS011;9132;47.946;10.394;2023-04-16T13:01:17;2.23;;;2.03;;
18013;SDS011;9132;47.946;10.394;2023-04-16T13:03:43;0.90;;;0.90;;
18013;SDS011;9132;47.946;10.394;2023-04-16T13:06:09;0.70;;;0.70;;
18013;SDS011;9132;47.946;10.394;2023-04-16T13:08:36;1.83;;;1.73;;
18013;SDS011;9132;47.946;10.394;2023-04-16T13:11:02;3.73;;;1.70;;
18013;SDS011;9132;47.946;10.394;2023-04-16T13:13:28;1.43;;;1.27;;
18013;SDS011;9132;47.946;10.394;2023-04-16T13:15:55;2.47;;;2.27;;
18013;SDS011;9132;47.946;10.394;2023-04-16T13:18:23;1.60;;;1.50;;
18013;SDS011;9132;47.946;10.394;2023-04-16T13:20:49;1.27;;;1.17;;
18013;SDS011;9132;47.946;10.394;2023-04-16T13:23:16;1.50;;;1.40;;
18013;SDS011;9132;47.946;10.394;2023-04-16T13:25:42;1.20;;;1.10;;
18013;SDS011;9132;47.946;10.394;2023-04-16T13:28:08;1.63;;;1.53;;
18013;SDS011;9132;47.946;10.394;2023-04-16T13:30:35;1.20;;;1.10;;
18013;SDS011;9132;47.946;10.394;2023-04-16T13:33:01;1.20;;;1.10;;
18013;SDS011;9132;47.946;10.394;2023-04-16T13:35:29;1.20;;;1.10;;
18013;SDS011;9132;47.946;10.394;2023-04-16T13:37:55;1.57;;;1.20;;
18013;SDS011;9132;47.946;10.394;2023-04-16T13:40:21;1.07;;;0.97;;
18013;SDS011;9132;47.946;10.394;2023-04-16T13:42:48;1.30;;;1.20;;
18013;SDS011;9132;47.946;10.394;2023-04-16T13:45:14;1.50;;;1.33;;
18013;SDS011;9132;47.946;10.394;2023-04-16T13:47:41;2.07;;;1.60;;
18013;SDS011;9132;47.946;10.394;2023-04-16T13:50:08;2.40;;;1.57;;
18013;SDS011;9132;47.946;10.394;2023-04-16T13:52:36;2.40;;;1.73;;
18013;SDS011;9132;47.946;10.394;2023-04-16T13:55:02;1.63;;;1.53;;
18013;SDS011;9132;47.946;10.394;2023-04-16T13:57:29;2.27;;;1.80;;
18013;SDS011;9132;47.946;10.394;2023-04-16T13:59:56;2.20;;;2.00;;
18013;SDS011;9132;47.946;10.394;2023-04-16T14:02:23;3.03;;;2.07;;
18013;SDS011;9132;47.946;10.394;2023-04-16T14:04:50;2.67;;;2.33;;
18013;SDS011;9132;47.946;10.394;2023-04-16T14:07:16;2.23;;;2.03;;
18013;SDS011;9132;47.946;10.394;2023-04-16T14:09:46;2.87;;;2.57;;
18013;SDS011;9132;47.946;10.394;2023-04-16T14:12:12;1.97;;;1.80;;
18013;SDS011;9132;47.946;10.394;2023-04-16T14:14:39;3.90;;;3.17;;
18013;SDS011;9132;47.946;10.394;2023-04-16T14:17:06;2.87;;;2.40;;
18013;SDS011;9132;47.946;10.394;2023-04-16T14:19:32;5.87;;;4.37;;
18013;SDS011;9132;47.946;10.394;2023-04-16T14:21:58;2.20;;;1.77;;
18013;SDS011;9132;47.946;10.394;2023-04-16T14:24:25;3.23;;;2.90;;
18013;SDS011;9132;47.946;10.394;2023-04-16T14:26:52;2.30;;;2.10;;
18013;SDS011;9132;47.946;10.394;2023-04-16T14:29:19;1.90;;;1.60;;
18013;SDS011;9132;47.946;10.394;2023-04-16T14:31:45;2.30;;;1.70;;
18013;SDS011;9132;47.946;10.394;2023-04-16T14:34:11;1.90;;;1.80;;
18013;SDS011;9132;47.946;10.394;2023-04-16T14:36:37;2.17;;;1.90;;
18013;SDS011;9132;47.946;10.394;2023-04-16T14:39:04;2.07;;;1.80;;
18013;SDS011;9132;47.946;10.394;2023-04-16T14:41:31;2.90;;;2.70;;
18013;SDS011;9132;47.946;10.394;2023-04-16T14:43:58;2.30;;;2.10;;
18013;SDS011;9132;47.946;10.394;2023-04-16T14:46:25;2.80;;;2.47;;